sensor_id;sensor_type;location;lat;lon;timestamp;P1;durP1;ratioP1;P2;durP2;ratioP2
70337;SDS011;57757;53.198;19.646;2024-01-25T00:02:11;10.30;;;1.90;;
70337;SDS011;57757;53.198;19.646;2024-01-25T00:04:39;11.90;;;2.20;;
70337;SDS011;57757;53.198;19.646;2024-01-25T00:07:08;7.70;;;2.00;;
70337;SDS011;57757;53.198;19.646;2024-01-25T00:09:37;15.20;;;2.00;;
70337;SDS011;57757;53.198;19.646;2024-01-25T00:12:05;11.10;;;2.30;;
70337;SDS011;57757;53.198;19.646;2024-01-25T00:14:33;11.70;;;2.50;;
70337;SDS011;57757;53.198;19.646;2024-01-25T00:17:00;11.00;;;2.00;;
70337;SDS011;57757;53.198;19.646;2024-01-25T00:19:28;9.60;;;2.50;;
70337;SDS011;57757;53.198;19.646;2024-01-25T00:21:56;11.30;;;2.70;;
70337;SDS011;57757;53.198;19.646;2024-01-25T00:24:25;13.70;;;3.40;;
70337;SDS011;57757;53.198;19.646;2024-01-25T00:26:53;11.10;;;3.10;;
70337;SDS011;57757;53.198;19.646;2024-01-25T00:29:21;11.70;;;3.00;;
70337;SDS011;57757;53.198;19.646;2024-01-25T00:31:49;11.70;;;2.10;;
70337;SDS011;57757;53.198;19.646;2024-01-25T00:34:17;14.50;;;3.80;;
70337;SDS011;57757;53.198;19.646;2024-01-25T00:36:46;13.30;;;3.50;;
70337;SDS011;57757;53.198;19.646;2024-01-25T00:39:14;11.60;;;2.20;;
70337;SDS011;57757;53.198;19.646;2024-01-25T00:41:42;9.80;;;2.70;;
70337;SDS011;57757;53.198;19.646;2024-01-25T00:44:11;12.30;;;1.90;;
70337;SDS011;57757;53.198;19.646;2024-01-25T00:46:39;9.80;;;2.10;;
70337;SDS011;57757;53.198;19.646;2024-01-25T00:49:07;10.30;;;1.80;;
70337;SDS011;57757;53.198;19.646;2024-01-25T00:51:35;12.40;;;2.10;;
70337;SDS011;57757;53.198;19.646;2024-01-25T00:54:03;13.50;;;2.60;;
70337;SDS011;57757;53.198;19.646;2024-01-25T00:56:31;10.30;;;2.00;;
70337;SDS011;57757;53.198;19.646;2024-01-25T00:58:59;11.30;;;1.90;;
70337;SDS011;57757;53.198;19.646;2024-01-25T01:01:27;9.00;;;1.60;;
70337;SDS011;57757;53.198;19.646;2024-01-25T01:03:55;7.30;;;1.00;;
70337;SDS011;57757;53.198;19.646;2024-01-25T01:06:26;8.60;;;1.30;;
70337;SDS011;57757;53.198;19.646;2024-01-25T01:08:54;9.10;;;1.30;;
70337;SDS011;57757;53.198;19.646;2024-01-25T01:11:22;9.50;;;1.30;;
70337;SDS011;57757;53.198;19.646;2024-01-25T01:13:49;10.30;;;1.30;;
70337;SDS011;57757;53.198;19.646;2024-01-25T01:16:17;7.50;;;0.90;;
70337;SDS011;57757;53.198;19.646;2024-01-25T01:18:47;10.50;;;2.30;;
70337;SDS011;57757;53.198;19.646;2024-01-25T01:21:15;10.30;;;1.70;;
70337;SDS011;57757;53.198;19.646;2024-01-25T01:23:43;9.20;;;2.10;;
70337;SDS011;57757;53.198;19.646;2024-01-25T01:26:11;17.70;;;2.90;;
70337;SDS011;57757;53.198;19.646;2024-01-25T01:28:38;11.90;;;2.10;;
70337;SDS011;57757;53.198;19.646;2024-01-25T01:31:06;12.50;;;2.20;;
70337;SDS011;57757;53.198;19.646;2024-01-25T01:33:34;9.50;;;1.30;;
70337;SDS011;57757;53.198;19.646;2024-01-25T01:36:01;10.90;;;1.90;;
70337;SDS011;57757;53.198;19.646;2024-01-25T01:38:29;10.40;;;1.40;;
70337;SDS011;57757;53.198;19.646;2024-01-25T01:41:00;11.10;;;1.80;;
70337;SDS011;57757;53.198;19.646;2024-01-25T01:43:28;10.30;;;1.80;;
70337;SDS011;57757;53.198;19.646;2024-01-25T01:45:56;11.30;;;1.90;;
70337;SDS011;57757;53.198;19.646;2024-01-25T01:48:31;12.10;;;1.60;;
70337;SDS011;57757;53.198;19.646;2024-01-25T01:50:59;17.60;;;3.20;;
70337;SDS011;57757;53.198;19.646;2024-01-25T01:53:27;12.00;;;1.90;;
70337;SDS011;57757;53.198;19.646;2024-01-25T01:55:55;13.50;;;1.90;;
70337;SDS011;57757;53.198;19.646;2024-01-25T01:58:23;14.60;;;1.90;;
70337;SDS011;57757;53.198;19.646;2024-01-25T02:00:53;12.30;;;1.80;;
70337;SDS011;57757;53.198;19.646;2024-01-25T02:03:22;11.40;;;1.30;;
70337;SDS011;57757;53.198;19.646;2024-01-25T02:05:51;9.90;;;1.20;;
70337;SDS011;57757;53.198;19.646;2024-01-25T02:08:18;13.60;;;2.00;;
70337;SDS011;57757;53.198;19.646;2024-01-25T02:10:46;13.30;;;1.70;;
70337;SDS011;57757;53.198;19.646;2024-01-25T02:13:13;11.10;;;1.50;;
70337;SDS011;57757;53.198;19.646;2024-01-25T02:15:41;15.40;;;1.50;;
70337;SDS011;57757;53.198;19.646;2024-01-25T02:18:09;11.00;;;1.60;;
70337;SDS011;57757;53.198;19.646;2024-01-25T02:20:37;11.00;;;1.40;;
70337;SDS011;57757;53.198;19.646;2024-01-25T02:23:04;15.20;;;1.80;;
70337;SDS011;57757;53.198;19.646;2024-01-25T02:25:32;11.00;;;1.50;;
70337;SDS011;57757;53.198;19.646;2024-01-25T02:28:16;15.00;;;1.90;;
70337;SDS011;57757;53.198;19.646;2024-01-25T02:30:44;10.60;;;1.40;;
70337;SDS011;57757;53.198;19.646;2024-01-25T02:33:12;14.10;;;1.50;;
70337;SDS011;57757;53.198;19.646;2024-01-25T02:35:40;12.10;;;1.60;;
70337;SDS011;57757;53.198;19.646;2024-01-25T02:38:08;16.80;;;1.90;;
70337;SDS011;57757;53.198;19.646;2024-01-25T02:40:35;10.70;;;1.60;;
70337;SDS011;57757;53.198;19.646;2024-01-25T02:43:05;10.90;;;1.50;;
70337;SDS011;57757;53.198;19.646;2024-01-25T02:45:33;14.00;;;1.80;;
70337;SDS011;57757;53.198;19.646;2024-01-25T02:48:01;17.00;;;2.90;;
70337;SDS011;57757;53.198;19.646;2024-01-25T02:50:31;11.00;;;2.00;;
70337;SDS011;57757;53.198;19.646;2024-01-25T02:52:59;10.80;;;1.80;;
70337;SDS011;57757;53.198;19.646;2024-01-25T02:55:27;13.10;;;2.60;;
70337;SDS011;57757;53.198;19.646;2024-01-25T02:57:55;10.60;;;1.60;;
70337;SDS011;57757;53.198;19.646;2024-01-25T03:00:23;10.90;;;1.80;;
70337;SDS011;57757;53.198;19.646;2024-01-25T03:02:50;14.40;;;2.20;;
70337;SDS011;57757;53.198;19.646;2024-01-25T03:05:18;11.20;;;1.70;;
70337;SDS011;57757;53.198;19.646;2024-01-25T03:07:46;11.80;;;1.80;;
70337;SDS011;57757;53.198;19.646;2024-01-25T03:10:14;14.40;;;1.50;;
70337;SDS011;57757;53.198;19.646;2024-01-25T03:12:42;8.80;;;1.60;;
70337;SDS011;57757;53.198;19.646;2024-01-25T03:15:10;9.80;;;1.90;;
70337;SDS011;57757;53.198;19.646;2024-01-25T03:17:39;11.10;;;2.00;;
70337;SDS011;57757;53.198;19.646;2024-01-25T03:20:07;11.10;;;1.50;;
70337;SDS011;57757;53.198;19.646;2024-01-25T03:22:35;10.20;;;1.30;;
70337;SDS011;57757;53.198;19.646;2024-01-25T03:25:03;12.00;;;1.50;;
70337;SDS011;57757;53.198;19.646;2024-01-25T03:27:31;10.00;;;2.00;;
70337;SDS011;57757;53.198;19.646;2024-01-25T03:29:59;7.90;;;1.60;;
70337;SDS011;57757;53.198;19.646;2024-01-25T03:32:27;7.50;;;1.10;;
70337;SDS011;57757;53.198;19.646;2024-01-25T03:34:57;8.10;;;1.00;;
70337;SDS011;57757;53.198;19.646;2024-01-25T03:37:25;14.00;;;1.80;;
70337;SDS011;57757;53.198;19.646;2024-01-25T03:39:53;12.10;;;1.70;;
70337;SDS011;57757;53.198;19.646;2024-01-25T03:42:20;10.50;;;1.40;;
70337;SDS011;57757;53.198;19.646;2024-01-25T03:44:48;9.60;;;1.30;;
70337;SDS011;57757;53.198;19.646;2024-01-25T03:47:17;11.40;;;1.70;;
70337;SDS011;57757;53.198;19.646;2024-01-25T03:49:45;13.60;;;2.40;;
70337;SDS011;57757;53.198;19.646;2024-01-25T03:52:12;9.40;;;1.50;;
70337;SDS011;57757;53.198;19.646;2024-01-25T03:54:40;11.50;;;1.90;;
70337;SDS011;57757;53.198;19.646;2024-01-25T03:57:08;13.70;;;2.10;;
70337;SDS011;57757;53.198;19.646;2024-01-25T03:59:35;9.70;;;1.40;;
70337;SDS011;57757;53.198;19.646;2024-01-25T04:02:03;15.60;;;3.20;;
70337;SDS011;57757;53.198;19.646;2024-01-25T04:04:31;25.80;;;5.20;;
70337;SDS011;57757;53.198;19.646;2024-01-25T04:06:59;10.00;;;2.10;;
70337;SDS011;57757;53.198;19.646;2024-01-25T04:09:27;10.30;;;1.90;;
70337;SDS011;57757;53.198;19.646;2024-01-25T04:11:55;11.10;;;2.60;;
70337;SDS011;57757;53.198;19.646;2024-01-25T04:14:23;11.60;;;2.90;;
70337;SDS011;57757;53.198;19.646;2024-01-25T04:16:51;9.70;;;1.70;;
70337;SDS011;57757;53.198;19.646;2024-01-25T04:19:18;10.70;;;2.60;;
70337;SDS011;57757;53.198;19.646;2024-01-25T04:21:46;10.50;;;2.40;;
70337;SDS011;57757;53.198;19.646;2024-01-25T04:24:14;15.00;;;3.20;;
70337;SDS011;57757;53.198;19.646;2024-01-25T04:26:41;14.00;;;3.40;;
70337;SDS011;57757;53.198;19.646;2024-01-25T04:29:09;10.60;;;1.60;;
70337;SDS011;57757;53.198;19.646;2024-01-25T04:31:42;11.30;;;2.10;;
70337;SDS011;57757;53.198;19.646;2024-01-25T04:34:12;11.60;;;2.10;;
70337;SDS011;57757;53.198;19.646;2024-01-25T04:36:40;9.30;;;1.80;;
70337;SDS011;57757;53.198;19.646;2024-01-25T04:39:08;11.60;;;1.40;;
70337;SDS011;57757;53.198;19.646;2024-01-25T04:41:36;20.40;;;5.20;;
70337;SDS011;57757;53.198;19.646;2024-01-25T04:44:04;12.50;;;4.10;;
70337;SDS011;57757;53.198;19.646;2024-01-25T04:46:31;7.60;;;1.60;;
70337;SDS011;57757;53.198;19.646;2024-01-25T04:49:04;10.00;;;1.70;;
70337;SDS011;57757;53.198;19.646;2024-01-25T04:51:32;12.10;;;1.60;;
70337;SDS011;57757;53.198;19.646;2024-01-25T04:54:00;9.60;;;1.60;;
70337;SDS011;57757;53.198;19.646;2024-01-25T04:56:28;10.10;;;1.50;;
70337;SDS011;57757;53.198;19.646;2024-01-25T04:58:56;8.40;;;2.00;;
70337;SDS011;57757;53.198;19.646;2024-01-25T05:01:23;14.20;;;2.00;;
70337;SDS011;57757;53.198;19.646;2024-01-25T05:03:51;10.00;;;1.60;;
70337;SDS011;57757;53.198;19.646;2024-01-25T05:06:19;14.60;;;2.40;;
70337;SDS011;57757;53.198;19.646;2024-01-25T05:08:47;9.70;;;2.00;;
70337;SDS011;57757;53.198;19.646;2024-01-25T05:11:15;9.90;;;2.00;;
70337;SDS011;57757;53.198;19.646;2024-01-25T05:13:42;12.50;;;3.10;;
70337;SDS011;57757;53.198;19.646;2024-01-25T05:16:10;29.00;;;15.40;;
70337;SDS011;57757;53.198;19.646;2024-01-25T05:18:39;22.90;;;10.20;;
70337;SDS011;57757;53.198;19.646;2024-01-25T05:21:07;48.30;;;28.40;;
70337;SDS011;57757;53.198;19.646;2024-01-25T05:23:34;34.30;;;20.50;;
70337;SDS011;57757;53.198;19.646;2024-01-25T05:26:02;34.90;;;21.40;;
70337;SDS011;57757;53.198;19.646;2024-01-25T05:28:30;21.80;;;8.50;;
70337;SDS011;57757;53.198;19.646;2024-01-25T05:30:57;18.30;;;5.80;;
70337;SDS011;57757;53.198;19.646;2024-01-25T05:33:27;10.80;;;3.70;;
70337;SDS011;57757;53.198;19.646;2024-01-25T05:35:55;17.10;;;4.10;;
70337;SDS011;57757;53.198;19.646;2024-01-25T05:38:22;16.50;;;5.00;;
70337;SDS011;57757;53.198;19.646;2024-01-25T05:40:50;17.60;;;5.90;;
70337;SDS011;57757;53.198;19.646;2024-01-25T05:43:17;14.80;;;5.00;;
70337;SDS011;57757;53.198;19.646;2024-01-25T05:45:45;16.60;;;5.90;;
70337;SDS011;57757;53.198;19.646;2024-01-25T05:48:14;14.80;;;4.00;;
70337;SDS011;57757;53.198;19.646;2024-01-25T05:50:42;11.80;;;3.10;;
70337;SDS011;57757;53.198;19.646;2024-01-25T05:53:10;10.80;;;3.30;;
70337;SDS011;57757;53.198;19.646;2024-01-25T05:55:40;13.30;;;3.50;;
70337;SDS011;57757;53.198;19.646;2024-01-25T05:58:07;15.20;;;4.20;;
70337;SDS011;57757;53.198;19.646;2024-01-25T06:00:35;14.10;;;3.50;;
70337;SDS011;57757;53.198;19.646;2024-01-25T06:03:03;12.80;;;3.20;;
70337;SDS011;57757;53.198;19.646;2024-01-25T06:05:30;14.80;;;4.10;;
70337;SDS011;57757;53.198;19.646;2024-01-25T06:07:59;16.70;;;4.10;;
70337;SDS011;57757;53.198;19.646;2024-01-25T06:10:26;11.80;;;3.30;;
70337;SDS011;57757;53.198;19.646;2024-01-25T06:12:54;13.30;;;3.30;;
70337;SDS011;57757;53.198;19.646;2024-01-25T06:15:22;15.10;;;4.80;;
70337;SDS011;57757;53.198;19.646;2024-01-25T06:17:50;15.90;;;4.40;;
70337;SDS011;57757;53.198;19.646;2024-01-25T06:20:21;14.00;;;3.30;;
70337;SDS011;57757;53.198;19.646;2024-01-25T06:22:49;13.40;;;4.30;;
70337;SDS011;57757;53.198;19.646;2024-01-25T06:25:16;11.20;;;3.00;;
70337;SDS011;57757;53.198;19.646;2024-01-25T06:27:46;13.90;;;3.40;;
70337;SDS011;57757;53.198;19.646;2024-01-25T06:30:13;16.80;;;4.10;;
70337;SDS011;57757;53.198;19.646;2024-01-25T06:32:41;13.80;;;4.70;;
70337;SDS011;57757;53.198;19.646;2024-01-25T06:35:09;9.60;;;2.90;;
70337;SDS011;57757;53.198;19.646;2024-01-25T06:37:37;11.50;;;3.10;;
70337;SDS011;57757;53.198;19.646;2024-01-25T06:40:05;18.20;;;7.40;;
70337;SDS011;57757;53.198;19.646;2024-01-25T06:42:34;13.80;;;4.70;;
70337;SDS011;57757;53.198;19.646;2024-01-25T06:45:02;19.20;;;6.10;;
70337;SDS011;57757;53.198;19.646;2024-01-25T06:47:30;12.10;;;4.10;;
70337;SDS011;57757;53.198;19.646;2024-01-25T06:49:57;13.70;;;4.60;;
70337;SDS011;57757;53.198;19.646;2024-01-25T06:52:25;12.30;;;3.40;;
70337;SDS011;57757;53.198;19.646;2024-01-25T06:54:56;15.40;;;6.00;;
70337;SDS011;57757;53.198;19.646;2024-01-25T06:57:24;17.80;;;7.00;;
70337;SDS011;57757;53.198;19.646;2024-01-25T06:59:52;12.50;;;4.40;;
70337;SDS011;57757;53.198;19.646;2024-01-25T07:02:19;12.50;;;5.10;;
70337;SDS011;57757;53.198;19.646;2024-01-25T07:04:48;12.30;;;5.90;;
70337;SDS011;57757;53.198;19.646;2024-01-25T07:07:16;11.70;;;3.90;;
70337;SDS011;57757;53.198;19.646;2024-01-25T07:09:44;15.20;;;4.70;;
70337;SDS011;57757;53.198;19.646;2024-01-25T07:12:12;14.00;;;5.50;;
70337;SDS011;57757;53.198;19.646;2024-01-25T07:14:40;17.10;;;5.40;;
70337;SDS011;57757;53.198;19.646;2024-01-25T07:17:07;11.90;;;3.90;;
70337;SDS011;57757;53.198;19.646;2024-01-25T07:19:35;26.80;;;11.90;;
70337;SDS011;57757;53.198;19.646;2024-01-25T07:22:03;14.10;;;5.60;;
70337;SDS011;57757;53.198;19.646;2024-01-25T07:24:31;17.30;;;4.70;;
70337;SDS011;57757;53.198;19.646;2024-01-25T07:26:59;19.90;;;8.70;;
70337;SDS011;57757;53.198;19.646;2024-01-25T07:29:27;24.00;;;13.00;;
70337;SDS011;57757;53.198;19.646;2024-01-25T07:31:56;13.60;;;5.80;;
70337;SDS011;57757;53.198;19.646;2024-01-25T07:34:26;13.10;;;5.00;;
70337;SDS011;57757;53.198;19.646;2024-01-25T07:36:54;23.00;;;8.90;;
70337;SDS011;57757;53.198;19.646;2024-01-25T07:39:22;15.80;;;6.20;;
70337;SDS011;57757;53.198;19.646;2024-01-25T07:41:51;14.60;;;5.90;;
70337;SDS011;57757;53.198;19.646;2024-01-25T07:44:19;14.10;;;5.60;;
70337;SDS011;57757;53.198;19.646;2024-01-25T07:46:46;18.70;;;8.90;;
70337;SDS011;57757;53.198;19.646;2024-01-25T07:49:14;23.80;;;9.10;;
70337;SDS011;57757;53.198;19.646;2024-01-25T07:51:42;24.00;;;9.00;;
70337;SDS011;57757;53.198;19.646;2024-01-25T07:54:10;26.40;;;9.70;;
70337;SDS011;57757;53.198;19.646;2024-01-25T07:56:38;27.10;;;11.30;;
70337;SDS011;57757;53.198;19.646;2024-01-25T07:59:05;30.10;;;10.30;;
70337;SDS011;57757;53.198;19.646;2024-01-25T08:01:33;19.20;;;8.20;;
70337;SDS011;57757;53.198;19.646;2024-01-25T08:04:01;18.80;;;6.80;;
70337;SDS011;57757;53.198;19.646;2024-01-25T08:06:31;30.10;;;13.70;;
70337;SDS011;57757;53.198;19.646;2024-01-25T08:08:59;25.30;;;11.60;;
70337;SDS011;57757;53.198;19.646;2024-01-25T08:11:28;16.10;;;6.30;;
70337;SDS011;57757;53.198;19.646;2024-01-25T08:13:56;17.60;;;6.90;;
70337;SDS011;57757;53.198;19.646;2024-01-25T08:16:29;17.30;;;7.60;;
70337;SDS011;57757;53.198;19.646;2024-01-25T08:18:58;17.10;;;7.60;;
70337;SDS011;57757;53.198;19.646;2024-01-25T08:21:26;16.80;;;6.70;;
70337;SDS011;57757;53.198;19.646;2024-01-25T08:23:55;18.80;;;8.80;;
70337;SDS011;57757;53.198;19.646;2024-01-25T08:26:22;14.00;;;6.50;;
70337;SDS011;57757;53.198;19.646;2024-01-25T08:28:51;24.00;;;9.60;;
70337;SDS011;57757;53.198;19.646;2024-01-25T08:31:19;23.10;;;9.70;;
70337;SDS011;57757;53.198;19.646;2024-01-25T08:33:47;57.90;;;23.10;;
70337;SDS011;57757;53.198;19.646;2024-01-25T08:36:17;40.70;;;15.00;;
70337;SDS011;57757;53.198;19.646;2024-01-25T08:38:46;27.00;;;11.20;;
70337;SDS011;57757;53.198;19.646;2024-01-25T08:41:14;32.70;;;14.00;;
70337;SDS011;57757;53.198;19.646;2024-01-25T08:43:43;23.80;;;12.60;;
70337;SDS011;57757;53.198;19.646;2024-01-25T08:46:14;18.40;;;7.80;;
70337;SDS011;57757;53.198;19.646;2024-01-25T08:48:51;19.20;;;7.60;;
70337;SDS011;57757;53.198;19.646;2024-01-25T08:51:21;20.60;;;7.80;;
70337;SDS011;57757;53.198;19.646;2024-01-25T08:53:50;18.40;;;6.50;;
70337;SDS011;57757;53.198;19.646;2024-01-25T08:56:19;13.50;;;4.80;;
70337;SDS011;57757;53.198;19.646;2024-01-25T08:58:48;13.20;;;5.30;;
70337;SDS011;57757;53.198;19.646;2024-01-25T09:01:17;13.20;;;4.30;;
70337;SDS011;57757;53.198;19.646;2024-01-25T09:03:45;18.80;;;6.80;;
70337;SDS011;57757;53.198;19.646;2024-01-25T09:06:14;18.80;;;6.00;;
70337;SDS011;57757;53.198;19.646;2024-01-25T09:08:43;31.60;;;9.50;;
70337;SDS011;57757;53.198;19.646;2024-01-25T09:11:10;33.40;;;10.20;;
70337;SDS011;57757;53.198;19.646;2024-01-25T09:13:38;25.10;;;9.00;;
70337;SDS011;57757;53.198;19.646;2024-01-25T09:16:14;20.00;;;7.90;;
70337;SDS011;57757;53.198;19.646;2024-01-25T09:18:43;16.40;;;4.50;;
70337;SDS011;57757;53.198;19.646;2024-01-25T09:21:12;12.30;;;4.60;;
70337;SDS011;57757;53.198;19.646;2024-01-25T09:23:40;32.50;;;14.20;;
70337;SDS011;57757;53.198;19.646;2024-01-25T09:26:07;22.50;;;9.30;;
70337;SDS011;57757;53.198;19.646;2024-01-25T09:28:36;12.50;;;4.60;;
70337;SDS011;57757;53.198;19.646;2024-01-25T09:31:04;16.50;;;5.50;;
70337;SDS011;57757;53.198;19.646;2024-01-25T09:33:33;57.20;;;22.10;;
70337;SDS011;57757;53.198;19.646;2024-01-25T09:36:02;36.80;;;15.70;;
70337;SDS011;57757;53.198;19.646;2024-01-25T09:38:30;18.80;;;5.70;;
70337;SDS011;57757;53.198;19.646;2024-01-25T09:40:58;32.10;;;10.40;;
70337;SDS011;57757;53.198;19.646;2024-01-25T09:43:27;38.10;;;9.20;;
70337;SDS011;57757;53.198;19.646;2024-01-25T09:45:56;36.30;;;10.60;;
70337;SDS011;57757;53.198;19.646;2024-01-25T09:48:24;66.80;;;16.60;;
70337;SDS011;57757;53.198;19.646;2024-01-25T09:50:52;69.80;;;21.00;;
70337;SDS011;57757;53.198;19.646;2024-01-25T09:53:26;55.40;;;16.60;;
70337;SDS011;57757;53.198;19.646;2024-01-25T09:58:41;72.90;;;27.60;;
70337;SDS011;57757;53.198;19.646;2024-01-25T10:01:11;60.80;;;28.60;;
70337;SDS011;57757;53.198;19.646;2024-01-25T10:03:44;179.80;;;50.30;;
70337;SDS011;57757;53.198;19.646;2024-01-25T10:06:14;126.70;;;37.90;;
70337;SDS011;57757;53.198;19.646;2024-01-25T10:08:44;67.80;;;20.20;;
70337;SDS011;57757;53.198;19.646;2024-01-25T10:11:12;115.50;;;32.80;;
70337;SDS011;57757;53.198;19.646;2024-01-25T10:13:40;124.80;;;38.90;;
70337;SDS011;57757;53.198;19.646;2024-01-25T10:16:15;113.40;;;36.20;;
70337;SDS011;57757;53.198;19.646;2024-01-25T10:18:47;62.50;;;23.10;;
70337;SDS011;57757;53.198;19.646;2024-01-25T10:21:17;66.30;;;25.00;;
70337;SDS011;57757;53.198;19.646;2024-01-25T10:23:46;40.60;;;16.50;;
70337;SDS011;57757;53.198;19.646;2024-01-25T10:26:16;30.00;;;13.70;;
70337;SDS011;57757;53.198;19.646;2024-01-25T10:28:51;28.20;;;12.80;;
70337;SDS011;57757;53.198;19.646;2024-01-25T10:31:28;14.00;;;6.60;;
70337;SDS011;57757;53.198;19.646;2024-01-25T10:33:57;10.20;;;4.40;;
70337;SDS011;57757;53.198;19.646;2024-01-25T10:36:27;8.30;;;3.10;;
70337;SDS011;57757;53.198;19.646;2024-01-25T10:38:55;9.50;;;3.60;;
70337;SDS011;57757;53.198;19.646;2024-01-25T10:41:24;7.90;;;2.10;;
70337;SDS011;57757;53.198;19.646;2024-01-25T10:43:55;8.50;;;3.20;;
70337;SDS011;57757;53.198;19.646;2024-01-25T10:46:23;8.00;;;2.50;;
70337;SDS011;57757;53.198;19.646;2024-01-25T10:48:51;6.40;;;2.20;;
70337;SDS011;57757;53.198;19.646;2024-01-25T10:51:21;9.00;;;3.10;;
70337;SDS011;57757;53.198;19.646;2024-01-25T10:53:57;7.90;;;3.20;;
70337;SDS011;57757;53.198;19.646;2024-01-25T10:56:25;7.70;;;2.70;;
70337;SDS011;57757;53.198;19.646;2024-01-25T10:58:53;5.70;;;1.70;;
70337;SDS011;57757;53.198;19.646;2024-01-25T11:01:21;6.90;;;2.40;;
70337;SDS011;57757;53.198;19.646;2024-01-25T11:03:49;7.10;;;2.00;;
70337;SDS011;57757;53.198;19.646;2024-01-25T11:06:19;8.10;;;1.70;;
70337;SDS011;57757;53.198;19.646;2024-01-25T11:08:49;6.30;;;1.40;;
70337;SDS011;57757;53.198;19.646;2024-01-25T11:11:17;8.00;;;2.20;;
70337;SDS011;57757;53.198;19.646;2024-01-25T11:13:46;7.70;;;1.70;;
70337;SDS011;57757;53.198;19.646;2024-01-25T11:16:18;18.10;;;4.90;;
70337;SDS011;57757;53.198;19.646;2024-01-25T11:19:06;24.00;;;8.60;;
70337;SDS011;57757;53.198;19.646;2024-01-25T11:24:30;23.80;;;5.30;;
70337;SDS011;57757;53.198;19.646;2024-01-25T11:27:06;16.10;;;4.00;;
70337;SDS011;57757;53.198;19.646;2024-01-25T11:29:33;13.70;;;3.30;;
70337;SDS011;57757;53.198;19.646;2024-01-25T11:32:01;24.70;;;6.50;;
70337;SDS011;57757;53.198;19.646;2024-01-25T11:34:32;20.40;;;5.10;;
70337;SDS011;57757;53.198;19.646;2024-01-25T11:37:01;17.10;;;4.90;;
70337;SDS011;57757;53.198;19.646;2024-01-25T11:39:28;14.60;;;4.10;;
70337;SDS011;57757;53.198;19.646;2024-01-25T11:41:56;16.60;;;3.50;;
70337;SDS011;57757;53.198;19.646;2024-01-25T11:44:24;11.30;;;3.70;;
70337;SDS011;57757;53.198;19.646;2024-01-25T11:46:54;10.30;;;4.00;;
70337;SDS011;57757;53.198;19.646;2024-01-25T11:49:24;13.50;;;4.90;;
70337;SDS011;57757;53.198;19.646;2024-01-25T11:51:52;13.50;;;4.60;;
70337;SDS011;57757;53.198;19.646;2024-01-25T11:54:20;9.10;;;2.40;;
70337;SDS011;57757;53.198;19.646;2024-01-25T11:56:48;9.30;;;2.60;;
70337;SDS011;57757;53.198;19.646;2024-01-25T11:59:16;10.80;;;2.80;;
70337;SDS011;57757;53.198;19.646;2024-01-25T12:01:44;13.00;;;4.30;;
70337;SDS011;57757;53.198;19.646;2024-01-25T12:04:12;13.90;;;4.20;;
70337;SDS011;57757;53.198;19.646;2024-01-25T12:06:40;12.00;;;2.80;;
70337;SDS011;57757;53.198;19.646;2024-01-25T12:09:08;11.40;;;3.40;;
70337;SDS011;57757;53.198;19.646;2024-01-25T12:11:38;10.90;;;3.90;;
70337;SDS011;57757;53.198;19.646;2024-01-25T12:14:09;11.20;;;3.50;;
70337;SDS011;57757;53.198;19.646;2024-01-25T12:16:37;10.70;;;2.90;;
70337;SDS011;57757;53.198;19.646;2024-01-25T12:19:06;9.60;;;1.90;;
70337;SDS011;57757;53.198;19.646;2024-01-25T12:21:35;7.80;;;1.90;;
70337;SDS011;57757;53.198;19.646;2024-01-25T12:24:05;6.40;;;1.60;;
70337;SDS011;57757;53.198;19.646;2024-01-25T12:26:35;7.40;;;1.80;;
70337;SDS011;57757;53.198;19.646;2024-01-25T12:29:04;13.90;;;3.80;;
70337;SDS011;57757;53.198;19.646;2024-01-25T12:31:33;7.60;;;1.20;;
70337;SDS011;57757;53.198;19.646;2024-01-25T12:34:01;8.70;;;2.00;;
70337;SDS011;57757;53.198;19.646;2024-01-25T12:36:29;9.00;;;2.90;;
70337;SDS011;57757;53.198;19.646;2024-01-25T12:38:57;8.50;;;2.70;;
70337;SDS011;57757;53.198;19.646;2024-01-25T12:41:28;14.00;;;3.60;;
70337;SDS011;57757;53.198;19.646;2024-01-25T12:43:56;17.20;;;4.60;;
70337;SDS011;57757;53.198;19.646;2024-01-25T12:46:24;14.00;;;3.50;;
70337;SDS011;57757;53.198;19.646;2024-01-25T12:48:55;6.40;;;1.50;;
70337;SDS011;57757;53.198;19.646;2024-01-25T12:51:26;9.40;;;2.20;;
70337;SDS011;57757;53.198;19.646;2024-01-25T12:53:55;8.70;;;2.00;;
70337;SDS011;57757;53.198;19.646;2024-01-25T12:56:23;13.00;;;4.90;;
70337;SDS011;57757;53.198;19.646;2024-01-25T12:58:51;7.50;;;2.00;;
70337;SDS011;57757;53.198;19.646;2024-01-25T13:01:19;5.70;;;1.30;;
70337;SDS011;57757;53.198;19.646;2024-01-25T13:03:48;6.60;;;2.30;;
70337;SDS011;57757;53.198;19.646;2024-01-25T13:06:16;6.90;;;1.60;;
70337;SDS011;57757;53.198;19.646;2024-01-25T13:08:44;6.90;;;1.60;;
70337;SDS011;57757;53.198;19.646;2024-01-25T13:11:12;7.70;;;1.70;;
70337;SDS011;57757;53.198;19.646;2024-01-25T13:13:40;7.40;;;1.80;;
70337;SDS011;57757;53.198;19.646;2024-01-25T13:16:07;6.60;;;1.40;;
70337;SDS011;57757;53.198;19.646;2024-01-25T13:18:36;8.40;;;3.30;;
70337;SDS011;57757;53.198;19.646;2024-01-25T13:21:03;14.10;;;3.90;;
70337;SDS011;57757;53.198;19.646;2024-01-25T13:23:32;12.40;;;3.60;;
70337;SDS011;57757;53.198;19.646;2024-01-25T13:25:59;7.90;;;3.00;;
70337;SDS011;57757;53.198;19.646;2024-01-25T13:28:27;16.80;;;7.60;;
70337;SDS011;57757;53.198;19.646;2024-01-25T13:30:55;11.70;;;4.10;;
70337;SDS011;57757;53.198;19.646;2024-01-25T13:33:25;15.40;;;6.90;;
70337;SDS011;57757;53.198;19.646;2024-01-25T13:35:53;9.00;;;3.50;;
70337;SDS011;57757;53.198;19.646;2024-01-25T13:38:20;8.70;;;3.40;;
70337;SDS011;57757;53.198;19.646;2024-01-25T13:40:48;7.10;;;2.20;;
70337;SDS011;57757;53.198;19.646;2024-01-25T13:43:17;6.70;;;1.90;;
70337;SDS011;57757;53.198;19.646;2024-01-25T13:45:44;11.20;;;5.50;;
70337;SDS011;57757;53.198;19.646;2024-01-25T13:48:12;10.30;;;3.30;;
70337;SDS011;57757;53.198;19.646;2024-01-25T13:50:40;10.20;;;4.30;;
70337;SDS011;57757;53.198;19.646;2024-01-25T13:53:07;20.00;;;8.70;;
70337;SDS011;57757;53.198;19.646;2024-01-25T13:55:35;36.80;;;13.00;;
70337;SDS011;57757;53.198;19.646;2024-01-25T13:58:02;19.80;;;6.10;;
70337;SDS011;57757;53.198;19.646;2024-01-25T14:00:32;16.70;;;4.60;;
70337;SDS011;57757;53.198;19.646;2024-01-25T14:03:00;20.80;;;5.30;;
70337;SDS011;57757;53.198;19.646;2024-01-25T14:05:28;23.80;;;7.90;;
70337;SDS011;57757;53.198;19.646;2024-01-25T14:07:56;16.50;;;5.20;;
70337;SDS011;57757;53.198;19.646;2024-01-25T14:10:24;21.30;;;5.80;;
70337;SDS011;57757;53.198;19.646;2024-01-25T14:12:51;17.00;;;4.90;;
70337;SDS011;57757;53.198;19.646;2024-01-25T14:15:19;14.70;;;3.70;;
70337;SDS011;57757;53.198;19.646;2024-01-25T14:17:47;14.00;;;5.00;;
70337;SDS011;57757;53.198;19.646;2024-01-25T14:20:15;12.60;;;3.20;;
70337;SDS011;57757;53.198;19.646;2024-01-25T14:22:44;10.60;;;3.50;;
70337;SDS011;57757;53.198;19.646;2024-01-25T14:25:12;19.10;;;6.00;;
70337;SDS011;57757;53.198;19.646;2024-01-25T14:27:40;14.30;;;5.50;;
70337;SDS011;57757;53.198;19.646;2024-01-25T14:30:08;11.60;;;4.30;;
70337;SDS011;57757;53.198;19.646;2024-01-25T14:32:36;11.50;;;3.30;;
70337;SDS011;57757;53.198;19.646;2024-01-25T14:35:04;11.90;;;3.60;;
70337;SDS011;57757;53.198;19.646;2024-01-25T14:37:32;13.30;;;5.40;;